DAOV

Ghriss Airport

Algeria
METAR DAOV 211900Z 15004KT 9999 BKN026 06/04 Q1019
Observed Flight Rules
Jan-21 @ 19:00 UTC (an hour ago) Marginal Visual Flight Rules
Wind Visibility Clouds
150° at 4 knots 10,000+ meters
  • Broken at 2,600' AGL
Temperatures Readings
Current 6°C / 43°F
Dewpoint 4°C / 39°F
Humidity 87%
Altimeter 30.09" Hg
Pressure 1018.92 hPa
Elevation 514
METAR DAOV 211900Z 15004KT 9999 BKN026 06/04 Q1019
Observed Flight Rules
Jan-21 @ 19:00 UTC
(an hour ago)
MVFR
Wind Visibility
150° at 4 knots 10,000+ meters
Clouds
  • Broken at 2,600' AGL
Temperature Dewpoint
6°C / 43°F 4°C / 39°F
Humidity Altimeter Pressure
87% 30.09" Hg 1018.92 hPa